WetterOnline ( https://www.wetteronline.ch )

Wetter aktuell Bielefeld

Aktuelles Wetter: Bad Salzuflen (139m)

6-stündlich | Neueste Meldungen
Ortszeit Temperatur Wetter
Mo, 27.01. 13:00 7.3° C Sprühregen
Mo, 27.01. 7:00 5.5° C leichter Regen
Mo, 27.01. 1:00 3.4° C wolkig
So, 26.01. 19:00 3.0° C wolkenlos
So, 26.01. 13:00 2.7° C bedeckt
So, 26.01. 7:00 -0.0° C Nebel
So, 26.01. 1:00 0.5° C Nebel
Sa, 25.01. 19:00 -1.2° C bedeckt
Ortszeit Temperatur Wetter
Mo, 27.01. 13:30 7.5° C Sprühregen
Mo, 27.01. 13:20 7.5° C Sprühregen
Mo, 27.01. 13:10 7.4° C bedeckt
Mo, 27.01. 13:00 7.3° C Sprühregen
Mo, 27.01. 12:50 7.3° C Sprühregen
Mo, 27.01. 12:40 7.4° C leichter Regen
Mo, 27.01. 12:30 7.6° C Sprühregen
Mo, 27.01. 12:00 7.5° C bedeckt
Ortszeit Relative Feuchte Sichtweite
Mo, 27.01. 13:00 88% 16 km
Mo, 27.01. 7:00 88% 13 km
Mo, 27.01. 1:00 87% 20 km
So, 26.01. 19:00 87% 19 km
So, 26.01. 13:00 87% 24 km
So, 26.01. 7:00 99% 0.2 km
So, 26.01. 1:00 97% 0.2 km
Sa, 25.01. 19:00 91% 4.7 km
Ortszeit Relative Feuchte Sichtweite
Mo, 27.01. 13:30 88% 40 km
Mo, 27.01. 13:20 88% -
Mo, 27.01. 13:10 89% -
Mo, 27.01. 13:00 88% 16 km
Mo, 27.01. 12:50 88% -
Mo, 27.01. 12:40 85% -
Mo, 27.01. 12:30 82% 20 km
Mo, 27.01. 12:00 82% 55 km
Ortszeit Niederschlagsmenge Niederschlagsart
Mo, 27.01. 13:00 2 l/m2 in 6 Std. Regen
Mo, 27.01. 7:00 0.2 l/m2 in 12 Std. Regen
Mo, 27.01. 1:00 0.1 l/m2 in 6 Std. Regen
So, 26.01. 19:00 0.0 l/m2 in 12 Std. -
So, 26.01. 13:00 0.0 l/m2 in 6 Std. -
So, 26.01. 7:00 0.0 l/m2 in 12 Std. -
So, 26.01. 1:00 0.0 l/m2 in 6 Std. -
Sa, 25.01. 19:00 0.1 l/m2 in 12 Std. -
Ortszeit Niederschlagsmenge Niederschlagsart
Mo, 27.01. 13:30 0.1 l/m2 in 1 Std. -
Mo, 27.01. 13:20 keine Meldung -
Mo, 27.01. 13:10 keine Meldung -
Mo, 27.01. 13:00 0.1 l/m2 in 1 Std. Regen
Mo, 27.01. 12:50 keine Meldung -
Mo, 27.01. 12:40 keine Meldung -
Mo, 27.01. 12:30 0.1 l/m2 in 1 Std. -
Mo, 27.01. 12:00 0.0 l/m2 in 1 Std. -
Ortszeit Stärke Spitze Richtung
km/h Bft. km/h Grad Sektor
Mo, 27.01. 13:00 11 2 29 180° S
Mo, 27.01. 7:00 11 2 25 180° S
Mo, 27.01. 1:00 11 2 25 180° S
So, 26.01. 19:00 7 2 22 180° S
So, 26.01. 13:00 7 2 18 180° S
So, 26.01. 7:00 7 2 18 180° S
So, 26.01. 1:00 7 2 14 180° S
Sa, 25.01. 19:00 7 2 18 180° S
Ortszeit Stärke Spitze Richtung
km/h Bft. km/h Grad Sektor
Mo, 27.01. 13:30 11 2 22 180° S
Mo, 27.01. 13:20 11 2 - 180° S
Mo, 27.01. 13:10 11 2 - 180° S
Mo, 27.01. 13:00 11 2 29 180° S
Mo, 27.01. 12:50 11 2 - 180° S
Mo, 27.01. 12:40 14 3 - 180° S
Mo, 27.01. 12:30 11 2 25 180° S
Mo, 27.01. 12:00 13 3 26 180° S
Ortszeit Untergrenze Bedeckung Gattung
total tief tief mittel hoch
Mo, 27.01. 13:00 420 m 7/8 8/8 - - -
Mo, 27.01. 7:00 630 m 8/8 8/8 - - -
Mo, 27.01. 1:00 9000 m 8/8 0/8 - - -
So, 26.01. 19:00 - 0/8 0/8 - - -
So, 26.01. 13:00 2700 m 8/8 8/8 - - -
So, 26.01. 7:00 <30 m 8/8 0/8 - - -
So, 26.01. 1:00 <30 m 8/8 0/8 - - -
Sa, 25.01. 19:00 180 m 8/8 8/8 - - -
Ortszeit Bedeckungsgrad in Achtel und Wolkenuntergrenze
Mo, 27.01. 13:30 7(360m) 8(510m)
Mo, 27.01. 13:20 7(360m) 8(510m)
Mo, 27.01. 13:10 6(360m) 8(510m)
Mo, 27.01. 13:00 7(420m) 8(510m)
Mo, 27.01. 12:50 7(420m)
Mo, 27.01. 12:40 8(420m)
Mo, 27.01. 12:30 8(510m)
Mo, 27.01. 12:00 7(510m) 8(750m)
Ortszeit Luftdruck NN (hPa) Tendenz (hPa in 3 Std.)
Mo, 27.01. 13:00 1007 - 1,6
Mo, 27.01. 7:00 1010 - 1,6
Mo, 27.01. 1:00 1014 - 1,4
So, 26.01. 19:00 1015 - 0,2
So, 26.01. 13:00 1017 - 1,5
So, 26.01. 7:00 1019 - 0,7
So, 26.01. 1:00 1021 - 0,9
Sa, 25.01. 19:00 1022 - 0,3
Ortszeit Luftdruck NN (hPa) Tendenz (hPa in 3 Std.)
Mo, 27.01. 13:30 1007 - 2,0
Mo, 27.01. 13:20 1007 keine Meldung
Mo, 27.01. 13:10 1007 keine Meldung
Mo, 27.01. 13:00 1007 - 1,6
Mo, 27.01. 12:50 1007 keine Meldung
Mo, 27.01. 12:40 1008 keine Meldung
Mo, 27.01. 12:30 1008 - 1,4
Mo, 27.01. 12:00 1008 - 1,2
Ortszeit Schneehöhe (cm)
Mo, 27.01. 13:00 0
Mo, 27.01. 7:00 0
Mo, 27.01. 1:00 0
So, 26.01. 19:00 0
So, 26.01. 13:00 0
So, 26.01. 7:00 0
So, 26.01. 1:00 0
Sa, 25.01. 19:00 0
Ortszeit Schneehöhe (cm)
Mo, 27.01. 13:30 0
Mo, 27.01. 13:20 0
Mo, 27.01. 13:10 0
Mo, 27.01. 13:00 0
Mo, 27.01. 12:50 0
Mo, 27.01. 12:40 0
Mo, 27.01. 12:30 0
Mo, 27.01. 12:00 0
Link zu dieser Seite / Seite empfehlen

Das Wetter in ...